sensor_id;sensor_type;location;lat;lon;timestamp;P1;durP1;ratioP1;P2;durP2;ratioP2
1925;SDS011;964;42.606;23.588;2023-02-26T00:02:28;9.17;;;4.00;;
1925;SDS011;964;42.606;23.588;2023-02-26T00:04:54;9.10;;;4.07;;
1925;SDS011;964;42.606;23.588;2023-02-26T00:07:21;8.40;;;4.13;;
1925;SDS011;964;42.606;23.588;2023-02-26T00:09:47;7.30;;;3.77;;
1925;SDS011;964;42.606;23.588;2023-02-26T00:12:14;12.90;;;4.30;;
1925;SDS011;964;42.606;23.588;2023-02-26T00:14:41;7.03;;;3.97;;
1925;SDS011;964;42.606;23.588;2023-02-26T00:17:16;6.07;;;3.60;;
1925;SDS011;964;42.606;23.588;2023-02-26T00:19:59;9.03;;;4.63;;
1925;SDS011;964;42.606;23.588;2023-02-26T00:22:27;9.73;;;4.13;;
1925;SDS011;964;42.606;23.588;2023-02-26T00:24:54;6.70;;;4.40;;
1925;SDS011;964;42.606;23.588;2023-02-26T00:27:21;10.03;;;4.07;;
1925;SDS011;964;42.606;23.588;2023-02-26T00:29:48;9.05;;;4.50;;
1925;SDS011;964;42.606;23.588;2023-02-26T00:32:17;13.83;;;3.77;;
1925;SDS011;964;42.606;23.588;2023-02-26T00:34:44;9.23;;;4.30;;
1925;SDS011;964;42.606;23.588;2023-02-26T00:37:14;10.33;;;3.80;;
1925;SDS011;964;42.606;23.588;2023-02-26T00:39:53;14.17;;;3.83;;
1925;SDS011;964;42.606;23.588;2023-02-26T00:42:28;8.47;;;3.60;;
1925;SDS011;964;42.606;23.588;2023-02-26T00:44:55;7.83;;;3.83;;
1925;SDS011;964;42.606;23.588;2023-02-26T00:47:24;8.10;;;3.80;;
1925;SDS011;964;42.606;23.588;2023-02-26T00:50:01;11.70;;;5.60;;
1925;SDS011;964;42.606;23.588;2023-02-26T00:52:37;6.90;;;4.00;;
1925;SDS011;964;42.606;23.588;2023-02-26T00:55:09;14.53;;;4.10;;
1925;SDS011;964;42.606;23.588;2023-02-26T00:57:36;8.37;;;4.40;;
1925;SDS011;964;42.606;23.588;2023-02-26T01:00:03;5.80;;;3.40;;
1925;SDS011;964;42.606;23.588;2023-02-26T01:02:33;7.93;;;3.73;;
1925;SDS011;964;42.606;23.588;2023-02-26T01:05:01;11.63;;;5.07;;
1925;SDS011;964;42.606;23.588;2023-02-26T01:07:29;10.03;;;4.40;;
1925;SDS011;964;42.606;23.588;2023-02-26T01:09:59;13.83;;;4.37;;
1925;SDS011;964;42.606;23.588;2023-02-26T01:12:27;8.77;;;3.43;;
1925;SDS011;964;42.606;23.588;2023-02-26T01:14:54;7.20;;;3.50;;
1925;SDS011;964;42.606;23.588;2023-02-26T01:17:22;11.40;;;4.07;;
1925;SDS011;964;42.606;23.588;2023-02-26T01:19:56;8.73;;;4.17;;
1925;SDS011;964;42.606;23.588;2023-02-26T01:22:30;9.63;;;3.50;;
1925;SDS011;964;42.606;23.588;2023-02-26T01:25:01;7.37;;;3.40;;
1925;SDS011;964;42.606;23.588;2023-02-26T01:27:31;8.03;;;3.57;;
1925;SDS011;964;42.606;23.588;2023-02-26T01:29:58;8.70;;;3.83;;
1925;SDS011;964;42.606;23.588;2023-02-26T01:32:26;22.47;;;4.40;;
1925;SDS011;964;42.606;23.588;2023-02-26T01:35:06;7.80;;;4.57;;
1925;SDS011;964;42.606;23.588;2023-02-26T01:37:44;20.63;;;3.73;;
1925;SDS011;964;42.606;23.588;2023-02-26T01:40:22;5.60;;;2.63;;
1925;SDS011;964;42.606;23.588;2023-02-26T01:43:02;8.90;;;3.90;;
1925;SDS011;964;42.606;23.588;2023-02-26T01:45:34;7.47;;;3.20;;
1925;SDS011;964;42.606;23.588;2023-02-26T01:48:05;11.50;;;3.47;;
1925;SDS011;964;42.606;23.588;2023-02-26T01:50:38;10.03;;;3.53;;
1925;SDS011;964;42.606;23.588;2023-02-26T01:55:49;8.43;;;3.60;;
1925;SDS011;964;42.606;23.588;2023-02-26T01:58:20;9.33;;;4.10;;
1925;SDS011;964;42.606;23.588;2023-02-26T02:00:49;7.73;;;3.60;;
1925;SDS011;964;42.606;23.588;2023-02-26T02:03:17;7.63;;;3.53;;
1925;SDS011;964;42.606;23.588;2023-02-26T02:05:47;9.07;;;3.87;;
1925;SDS011;964;42.606;23.588;2023-02-26T02:08:17;10.30;;;4.37;;
1925;SDS011;964;42.606;23.588;2023-02-26T02:10:45;9.80;;;4.10;;
1925;SDS011;964;42.606;23.588;2023-02-26T02:13:17;7.57;;;3.40;;
1925;SDS011;964;42.606;23.588;2023-02-26T02:15:53;7.60;;;3.77;;
1925;SDS011;964;42.606;23.588;2023-02-26T02:18:30;13.47;;;3.53;;
1925;SDS011;964;42.606;23.588;2023-02-26T02:24:08;10.97;;;3.80;;
1925;SDS011;964;42.606;23.588;2023-02-26T02:26:44;7.57;;;3.70;;
1925;SDS011;964;42.606;23.588;2023-02-26T02:32:28;9.37;;;3.50;;
1925;SDS011;964;42.606;23.588;2023-02-26T02:35:02;8.77;;;3.63;;
1925;SDS011;964;42.606;23.588;2023-02-26T02:37:38;9.07;;;3.80;;
1925;SDS011;964;42.606;23.588;2023-02-26T02:40:12;14.40;;;3.30;;
1925;SDS011;964;42.606;23.588;2023-02-26T02:42:42;4.57;;;2.30;;
1925;SDS011;964;42.606;23.588;2023-02-26T02:45:12;7.57;;;3.63;;
1925;SDS011;964;42.606;23.588;2023-02-26T02:47:46;7.73;;;2.63;;
1925;SDS011;964;42.606;23.588;2023-02-26T02:50:18;7.00;;;2.63;;
1925;SDS011;964;42.606;23.588;2023-02-26T02:52:51;7.90;;;2.60;;
1925;SDS011;964;42.606;23.588;2023-02-26T02:55:23;10.20;;;3.27;;
1925;SDS011;964;42.606;23.588;2023-02-26T02:57:53;6.03;;;3.10;;
1925;SDS011;964;42.606;23.588;2023-02-26T03:00:25;5.87;;;2.70;;
1925;SDS011;964;42.606;23.588;2023-02-26T03:02:58;8.90;;;2.83;;
1925;SDS011;964;42.606;23.588;2023-02-26T03:05:30;11.83;;;2.80;;
1925;SDS011;964;42.606;23.588;2023-02-26T03:07:58;8.20;;;3.00;;
1925;SDS011;964;42.606;23.588;2023-02-26T03:10:28;9.70;;;4.20;;
1925;SDS011;964;42.606;23.588;2023-02-26T03:12:56;7.17;;;2.47;;
1925;SDS011;964;42.606;23.588;2023-02-26T03:15:27;11.18;;;3.20;;
1925;SDS011;964;42.606;23.588;2023-02-26T03:18:04;12.60;;;3.20;;
1925;SDS011;964;42.606;23.588;2023-02-26T03:20:40;7.07;;;3.40;;
1925;SDS011;964;42.606;23.588;2023-02-26T03:23:17;11.60;;;3.57;;
1925;SDS011;964;42.606;23.588;2023-02-26T03:25:48;6.87;;;3.03;;
1925;SDS011;964;42.606;23.588;2023-02-26T03:28:21;15.23;;;2.93;;
1925;SDS011;964;42.606;23.588;2023-02-26T03:30:53;9.53;;;3.00;;
1925;SDS011;964;42.606;23.588;2023-02-26T03:33:27;7.83;;;3.00;;
1925;SDS011;964;42.606;23.588;2023-02-26T03:36:01;11.97;;;3.23;;
1925;SDS011;964;42.606;23.588;2023-02-26T03:38:35;4.93;;;3.37;;
1925;SDS011;964;42.606;23.588;2023-02-26T03:41:07;7.30;;;2.77;;
1925;SDS011;964;42.606;23.588;2023-02-26T03:43:39;7.83;;;2.70;;
1925;SDS011;964;42.606;23.588;2023-02-26T03:46:10;7.30;;;2.70;;
1925;SDS011;964;42.606;23.588;2023-02-26T03:48:41;8.60;;;2.83;;
1925;SDS011;964;42.606;23.588;2023-02-26T03:51:09;5.07;;;3.07;;
1925;SDS011;964;42.606;23.588;2023-02-26T03:53:38;10.13;;;3.07;;
1925;SDS011;964;42.606;23.588;2023-02-26T03:56:11;9.70;;;3.90;;
1925;SDS011;964;42.606;23.588;2023-02-26T03:58:47;7.33;;;2.60;;
1925;SDS011;964;42.606;23.588;2023-02-26T04:01:15;11.33;;;3.33;;
1925;SDS011;964;42.606;23.588;2023-02-26T04:03:48;11.05;;;4.20;;
1925;SDS011;964;42.606;23.588;2023-02-26T04:06:21;11.80;;;3.47;;
1925;SDS011;964;42.606;23.588;2023-02-26T04:08:49;11.60;;;4.00;;
1925;SDS011;964;42.606;23.588;2023-02-26T04:11:18;10.20;;;2.93;;
1925;SDS011;964;42.606;23.588;2023-02-26T04:13:46;10.23;;;2.87;;
1925;SDS011;964;42.606;23.588;2023-02-26T04:16:13;9.07;;;3.60;;
1925;SDS011;964;42.606;23.588;2023-02-26T04:18:41;9.60;;;3.80;;
1925;SDS011;964;42.606;23.588;2023-02-26T04:21:11;15.50;;;3.43;;
1925;SDS011;964;42.606;23.588;2023-02-26T04:23:37;11.60;;;3.87;;
1925;SDS011;964;42.606;23.588;2023-02-26T04:26:04;14.00;;;3.63;;
1925;SDS011;964;42.606;23.588;2023-02-26T04:28:31;11.10;;;3.03;;
1925;SDS011;964;42.606;23.588;2023-02-26T04:30:59;10.73;;;3.13;;
1925;SDS011;964;42.606;23.588;2023-02-26T04:33:26;6.93;;;3.17;;
1925;SDS011;964;42.606;23.588;2023-02-26T04:35:52;9.33;;;5.10;;
1925;SDS011;964;42.606;23.588;2023-02-26T04:38:20;19.83;;;7.30;;
1925;SDS011;964;42.606;23.588;2023-02-26T04:40:47;14.40;;;7.33;;
1925;SDS011;964;42.606;23.588;2023-02-26T04:43:14;13.93;;;6.90;;
1925;SDS011;964;42.606;23.588;2023-02-26T04:45:42;10.10;;;5.37;;
1925;SDS011;964;42.606;23.588;2023-02-26T04:48:10;19.80;;;6.63;;
1925;SDS011;964;42.606;23.588;2023-02-26T04:50:37;6.97;;;4.07;;
1925;SDS011;964;42.606;23.588;2023-02-26T04:53:03;13.37;;;6.27;;
1925;SDS011;964;42.606;23.588;2023-02-26T04:55:31;12.00;;;6.20;;
1925;SDS011;964;42.606;23.588;2023-02-26T04:57:59;29.33;;;10.53;;
1925;SDS011;964;42.606;23.588;2023-02-26T05:00:26;26.93;;;12.93;;
1925;SDS011;964;42.606;23.588;2023-02-26T05:02:52;43.70;;;14.57;;
1925;SDS011;964;42.606;23.588;2023-02-26T05:05:19;32.00;;;13.37;;
1925;SDS011;964;42.606;23.588;2023-02-26T05:07:46;32.63;;;14.40;;
1925;SDS011;964;42.606;23.588;2023-02-26T05:10:12;46.73;;;19.20;;
1925;SDS011;964;42.606;23.588;2023-02-26T05:12:40;28.30;;;13.80;;
1925;SDS011;964;42.606;23.588;2023-02-26T05:15:07;43.60;;;14.77;;
1925;SDS011;964;42.606;23.588;2023-02-26T05:17:34;28.40;;;10.70;;
1925;SDS011;964;42.606;23.588;2023-02-26T05:20:01;23.07;;;6.10;;
1925;SDS011;964;42.606;23.588;2023-02-26T05:22:30;4.00;;;2.03;;
1925;SDS011;964;42.606;23.588;2023-02-26T05:24:57;9.70;;;3.90;;
1925;SDS011;964;42.606;23.588;2023-02-26T05:27:23;12.80;;;3.83;;
1925;SDS011;964;42.606;23.588;2023-02-26T05:29:51;19.17;;;6.30;;
1925;SDS011;964;42.606;23.588;2023-02-26T05:32:18;13.70;;;5.23;;
1925;SDS011;964;42.606;23.588;2023-02-26T05:34:45;45.03;;;18.30;;
1925;SDS011;964;42.606;23.588;2023-02-26T05:37:11;25.70;;;9.20;;
1925;SDS011;964;42.606;23.588;2023-02-26T05:39:38;17.90;;;7.57;;
1925;SDS011;964;42.606;23.588;2023-02-26T05:42:05;18.13;;;6.37;;
1925;SDS011;964;42.606;23.588;2023-02-26T05:44:32;22.20;;;8.40;;
1925;SDS011;964;42.606;23.588;2023-02-26T05:47:00;24.03;;;12.10;;
1925;SDS011;964;42.606;23.588;2023-02-26T05:49:27;30.83;;;12.70;;
1925;SDS011;964;42.606;23.588;2023-02-26T05:51:54;38.90;;;13.03;;
1925;SDS011;964;42.606;23.588;2023-02-26T05:54:21;15.40;;;6.13;;
1925;SDS011;964;42.606;23.588;2023-02-26T05:56:48;13.70;;;6.27;;
1925;SDS011;964;42.606;23.588;2023-02-26T05:59:15;9.33;;;4.20;;
1925;SDS011;964;42.606;23.588;2023-02-26T06:01:41;18.53;;;5.77;;
1925;SDS011;964;42.606;23.588;2023-02-26T06:04:10;9.70;;;5.40;;
1925;SDS011;964;42.606;23.588;2023-02-26T06:06:37;14.10;;;5.63;;
1925;SDS011;964;42.606;23.588;2023-02-26T06:09:03;15.43;;;5.70;;
1925;SDS011;964;42.606;23.588;2023-02-26T06:11:30;15.27;;;7.13;;
1925;SDS011;964;42.606;23.588;2023-02-26T06:13:57;15.57;;;6.47;;
1925;SDS011;964;42.606;23.588;2023-02-26T06:16:24;13.03;;;5.57;;
1925;SDS011;964;42.606;23.588;2023-02-26T06:18:51;13.67;;;5.63;;
1925;SDS011;964;42.606;23.588;2023-02-26T06:21:19;20.63;;;7.87;;
1925;SDS011;964;42.606;23.588;2023-02-26T06:23:46;9.73;;;4.80;;
1925;SDS011;964;42.606;23.588;2023-02-26T06:26:13;11.20;;;5.90;;
1925;SDS011;964;42.606;23.588;2023-02-26T06:28:39;13.53;;;5.17;;
1925;SDS011;964;42.606;23.588;2023-02-26T06:31:06;12.97;;;6.07;;
1925;SDS011;964;42.606;23.588;2023-02-26T06:33:33;16.80;;;6.60;;
1925;SDS011;964;42.606;23.588;2023-02-26T06:35:59;11.33;;;5.27;;
1925;SDS011;964;42.606;23.588;2023-02-26T06:38:28;18.43;;;6.87;;
1925;SDS011;964;42.606;23.588;2023-02-26T06:40:54;17.77;;;7.03;;
1925;SDS011;964;42.606;23.588;2023-02-26T06:43:21;28.00;;;8.87;;
1925;SDS011;964;42.606;23.588;2023-02-26T06:45:48;17.53;;;7.97;;
1925;SDS011;964;42.606;23.588;2023-02-26T06:48:15;14.43;;;6.00;;
1925;SDS011;964;42.606;23.588;2023-02-26T06:50:42;12.97;;;5.30;;
1925;SDS011;964;42.606;23.588;2023-02-26T06:53:09;23.03;;;5.27;;
1925;SDS011;964;42.606;23.588;2023-02-26T06:55:40;13.90;;;5.93;;
1925;SDS011;964;42.606;23.588;2023-02-26T06:58:08;10.37;;;6.50;;
1925;SDS011;964;42.606;23.588;2023-02-26T07:00:35;17.27;;;6.40;;
1925;SDS011;964;42.606;23.588;2023-02-26T07:03:03;15.50;;;7.20;;
1925;SDS011;964;42.606;23.588;2023-02-26T07:05:30;12.50;;;6.30;;
1925;SDS011;964;42.606;23.588;2023-02-26T07:07:57;12.97;;;5.47;;
1925;SDS011;964;42.606;23.588;2023-02-26T07:10:23;12.63;;;4.33;;
1925;SDS011;964;42.606;23.588;2023-02-26T07:12:52;12.40;;;5.10;;
1925;SDS011;964;42.606;23.588;2023-02-26T07:15:19;15.87;;;6.80;;
1925;SDS011;964;42.606;23.588;2023-02-26T07:17:45;16.40;;;6.40;;
1925;SDS011;964;42.606;23.588;2023-02-26T07:20:12;8.97;;;3.90;;
1925;SDS011;964;42.606;23.588;2023-02-26T07:22:39;10.60;;;4.73;;
1925;SDS011;964;42.606;23.588;2023-02-26T07:25:06;16.27;;;6.20;;
1925;SDS011;964;42.606;23.588;2023-02-26T07:27:34;11.10;;;4.73;;
1925;SDS011;964;42.606;23.588;2023-02-26T07:30:02;12.20;;;4.37;;
1925;SDS011;964;42.606;23.588;2023-02-26T07:32:31;9.17;;;4.93;;
1925;SDS011;964;42.606;23.588;2023-02-26T07:34:58;13.77;;;6.63;;
1925;SDS011;964;42.606;23.588;2023-02-26T07:37:24;11.30;;;5.00;;
1925;SDS011;964;42.606;23.588;2023-02-26T07:39:53;10.23;;;4.50;;
1925;SDS011;964;42.606;23.588;2023-02-26T07:42:19;7.03;;;3.80;;
1925;SDS011;964;42.606;23.588;2023-02-26T07:44:46;12.27;;;5.10;;
1925;SDS011;964;42.606;23.588;2023-02-26T07:47:14;8.27;;;3.80;;
1925;SDS011;964;42.606;23.588;2023-02-26T07:49:42;11.73;;;3.23;;
1925;SDS011;964;42.606;23.588;2023-02-26T07:52:08;8.80;;;3.17;;
1925;SDS011;964;42.606;23.588;2023-02-26T07:54:35;7.13;;;3.43;;
1925;SDS011;964;42.606;23.588;2023-02-26T07:57:02;12.70;;;3.43;;
1925;SDS011;964;42.606;23.588;2023-02-26T07:59:29;12.50;;;3.85;;
1925;SDS011;964;42.606;23.588;2023-02-26T08:01:56;11.03;;;3.80;;
1925;SDS011;964;42.606;23.588;2023-02-26T08:04:24;14.33;;;4.10;;
1925;SDS011;964;42.606;23.588;2023-02-26T08:06:51;12.63;;;5.03;;
1925;SDS011;964;42.606;23.588;2023-02-26T08:09:19;13.83;;;5.30;;
1925;SDS011;964;42.606;23.588;2023-02-26T08:11:46;14.33;;;6.80;;
1925;SDS011;964;42.606;23.588;2023-02-26T08:14:12;16.63;;;5.60;;
1925;SDS011;964;42.606;23.588;2023-02-26T08:16:39;11.03;;;4.27;;
1925;SDS011;964;42.606;23.588;2023-02-26T08:19:06;13.63;;;4.77;;
1925;SDS011;964;42.606;23.588;2023-02-26T08:21:34;12.60;;;5.53;;
1925;SDS011;964;42.606;23.588;2023-02-26T08:24:01;8.40;;;3.13;;
1925;SDS011;964;42.606;23.588;2023-02-26T08:26:27;7.83;;;2.80;;
1925;SDS011;964;42.606;23.588;2023-02-26T08:28:54;6.40;;;3.10;;
1925;SDS011;964;42.606;23.588;2023-02-26T08:31:21;15.60;;;5.15;;
1925;SDS011;964;42.606;23.588;2023-02-26T08:33:47;11.83;;;4.00;;
1925;SDS011;964;42.606;23.588;2023-02-26T08:36:14;10.80;;;3.53;;
1925;SDS011;964;42.606;23.588;2023-02-26T08:38:42;16.67;;;3.53;;
1925;SDS011;964;42.606;23.588;2023-02-26T08:41:09;13.67;;;5.03;;
1925;SDS011;964;42.606;23.588;2023-02-26T08:43:36;18.67;;;4.90;;
1925;SDS011;964;42.606;23.588;2023-02-26T08:46:02;14.77;;;4.87;;
1925;SDS011;964;42.606;23.588;2023-02-26T08:48:29;17.73;;;4.70;;
1925;SDS011;964;42.606;23.588;2023-02-26T08:50:56;13.27;;;4.27;;
1925;SDS011;964;42.606;23.588;2023-02-26T08:53:23;9.47;;;4.63;;
1925;SDS011;964;42.606;23.588;2023-02-26T08:55:51;14.13;;;4.40;;
1925;SDS011;964;42.606;23.588;2023-02-26T08:58:19;16.03;;;4.27;;
1925;SDS011;964;42.606;23.588;2023-02-26T09:00:46;13.97;;;4.43;;
1925;SDS011;964;42.606;23.588;2023-02-26T09:03:13;9.47;;;4.10;;
1925;SDS011;964;42.606;23.588;2023-02-26T09:05:39;16.63;;;6.17;;
1925;SDS011;964;42.606;23.588;2023-02-26T09:08:07;10.40;;;3.87;;
1925;SDS011;964;42.606;23.588;2023-02-26T09:10:36;21.90;;;5.80;;
1925;SDS011;964;42.606;23.588;2023-02-26T09:13:05;12.33;;;4.53;;
1925;SDS011;964;42.606;23.588;2023-02-26T09:15:31;11.27;;;3.77;;
1925;SDS011;964;42.606;23.588;2023-02-26T09:17:59;9.07;;;2.80;;
1925;SDS011;964;42.606;23.588;2023-02-26T09:20:25;13.40;;;4.50;;
1925;SDS011;964;42.606;23.588;2023-02-26T09:22:52;10.67;;;4.70;;
1925;SDS011;964;42.606;23.588;2023-02-26T09:25:19;8.33;;;3.43;;
1925;SDS011;964;42.606;23.588;2023-02-26T09:27:46;17.57;;;5.33;;
1925;SDS011;964;42.606;23.588;2023-02-26T09:30:14;13.07;;;5.47;;
1925;SDS011;964;42.606;23.588;2023-02-26T09:32:41;20.00;;;4.30;;
1925;SDS011;964;42.606;23.588;2023-02-26T09:35:08;12.70;;;4.23;;
1925;SDS011;964;42.606;23.588;2023-02-26T09:37:35;9.93;;;3.90;;
1925;SDS011;964;42.606;23.588;2023-02-26T09:40:02;16.60;;;4.00;;
1925;SDS011;964;42.606;23.588;2023-02-26T09:42:42;13.07;;;3.70;;
1925;SDS011;964;42.606;23.588;2023-02-26T09:45:20;16.47;;;4.77;;
1925;SDS011;964;42.606;23.588;2023-02-26T09:47:52;15.10;;;4.03;;
1925;SDS011;964;42.606;23.588;2023-02-26T09:50:21;11.27;;;3.50;;
1925;SDS011;964;42.606;23.588;2023-02-26T09:52:51;14.70;;;3.25;;
1925;SDS011;964;42.606;23.588;2023-02-26T09:55:25;13.90;;;4.00;;
1925;SDS011;964;42.606;23.588;2023-02-26T09:57:56;13.10;;;4.73;;
1925;SDS011;964;42.606;23.588;2023-02-26T10:00:29;18.00;;;4.80;;
1925;SDS011;964;42.606;23.588;2023-02-26T10:03:02;13.77;;;3.73;;
1925;SDS011;964;42.606;23.588;2023-02-26T10:05:56;9.70;;;3.50;;
1925;SDS011;964;42.606;23.588;2023-02-26T10:08:37;11.13;;;3.40;;
1925;SDS011;964;42.606;23.588;2023-02-26T10:11:12;12.43;;;3.37;;
1925;SDS011;964;42.606;23.588;2023-02-26T10:13:46;10.97;;;4.00;;
1925;SDS011;964;42.606;23.588;2023-02-26T10:16:40;13.70;;;3.47;;
1925;SDS011;964;42.606;23.588;2023-02-26T10:19:13;9.40;;;4.00;;
1925;SDS011;964;42.606;23.588;2023-02-26T10:21:44;12.33;;;3.80;;
1925;SDS011;964;42.606;23.588;2023-02-26T10:24:14;11.73;;;3.77;;
1925;SDS011;964;42.606;23.588;2023-02-26T10:26:45;9.60;;;3.60;;
1925;SDS011;964;42.606;23.588;2023-02-26T10:29:20;9.33;;;2.77;;
1925;SDS011;964;42.606;23.588;2023-02-26T10:31:58;6.73;;;2.63;;
1925;SDS011;964;42.606;23.588;2023-02-26T10:34:34;12.93;;;4.60;;
1925;SDS011;964;42.606;23.588;2023-02-26T10:37:07;14.50;;;5.00;;
1925;SDS011;964;42.606;23.588;2023-02-26T10:39:42;12.57;;;3.33;;
1925;SDS011;964;42.606;23.588;2023-02-26T10:42:15;20.03;;;6.70;;
1925;SDS011;964;42.606;23.588;2023-02-26T10:44:48;23.70;;;4.93;;
1925;SDS011;964;42.606;23.588;2023-02-26T10:47:25;15.90;;;5.07;;
1925;SDS011;964;42.606;23.588;2023-02-26T10:50:02;18.17;;;3.83;;
1925;SDS011;964;42.606;23.588;2023-02-26T10:52:32;17.27;;;5.00;;
1925;SDS011;964;42.606;23.588;2023-02-26T10:55:03;11.70;;;4.93;;
1925;SDS011;964;42.606;23.588;2023-02-26T10:57:39;14.63;;;6.73;;
1925;SDS011;964;42.606;23.588;2023-02-26T11:00:13;24.43;;;5.17;;
1925;SDS011;964;42.606;23.588;2023-02-26T11:02:44;16.77;;;5.60;;
1925;SDS011;964;42.606;23.588;2023-02-26T11:05:14;25.87;;;7.80;;
1925;SDS011;964;42.606;23.588;2023-02-26T11:07:44;18.13;;;6.40;;
1925;SDS011;964;42.606;23.588;2023-02-26T11:10:14;10.47;;;4.07;;
1925;SDS011;964;42.606;23.588;2023-02-26T11:12:43;12.20;;;4.30;;
1925;SDS011;964;42.606;23.588;2023-02-26T11:15:13;10.80;;;3.70;;
1925;SDS011;964;42.606;23.588;2023-02-26T11:17:40;10.00;;;4.50;;
1925;SDS011;964;42.606;23.588;2023-02-26T11:20:18;17.53;;;5.23;;
1925;SDS011;964;42.606;23.588;2023-02-26T11:22:51;13.57;;;4.50;;
1925;SDS011;964;42.606;23.588;2023-02-26T11:25:22;8.30;;;3.30;;
1925;SDS011;964;42.606;23.588;2023-02-26T11:27:59;13.07;;;4.57;;
1925;SDS011;964;42.606;23.588;2023-02-26T11:30:29;10.10;;;3.93;;
1925;SDS011;964;42.606;23.588;2023-02-26T11:32:58;15.30;;;4.10;;
1925;SDS011;964;42.606;23.588;2023-02-26T11:35:33;11.60;;;4.00;;
1925;SDS011;964;42.606;23.588;2023-02-26T11:38:01;21.83;;;4.57;;
1925;SDS011;964;42.606;23.588;2023-02-26T11:40:32;11.03;;;3.90;;
1925;SDS011;964;42.606;23.588;2023-02-26T11:43:03;10.90;;;4.07;;
1925;SDS011;964;42.606;23.588;2023-02-26T11:45:33;15.10;;;5.47;;
1925;SDS011;964;42.606;23.588;2023-02-26T11:48:03;14.03;;;4.27;;
1925;SDS011;964;42.606;23.588;2023-02-26T11:50:32;13.63;;;6.50;;
1925;SDS011;964;42.606;23.588;2023-02-26T11:53:06;14.03;;;5.70;;
1925;SDS011;964;42.606;23.588;2023-02-26T11:55:43;16.23;;;6.07;;
1925;SDS011;964;42.606;23.588;2023-02-26T11:58:17;30.67;;;6.20;;
1925;SDS011;964;42.606;23.588;2023-02-26T12:00:46;13.83;;;4.97;;
1925;SDS011;964;42.606;23.588;2023-02-26T12:03:19;17.63;;;7.73;;
1925;SDS011;964;42.606;23.588;2023-02-26T12:05:49;16.30;;;6.97;;
1925;SDS011;964;42.606;23.588;2023-02-26T12:08:24;16.13;;;6.17;;
1925;SDS011;964;42.606;23.588;2023-02-26T12:10:59;13.87;;;5.10;;
1925;SDS011;964;42.606;23.588;2023-02-26T12:13:39;11.47;;;5.10;;
1925;SDS011;964;42.606;23.588;2023-02-26T12:16:16;16.70;;;5.97;;
1925;SDS011;964;42.606;23.588;2023-02-26T12:18:52;9.80;;;5.47;;
1925;SDS011;964;42.606;23.588;2023-02-26T12:21:40;13.47;;;4.73;;
1925;SDS011;964;42.606;23.588;2023-02-26T12:24:39;10.77;;;3.90;;
1925;SDS011;964;42.606;23.588;2023-02-26T12:27:18;13.20;;;3.97;;
1925;SDS011;964;42.606;23.588;2023-02-26T12:30:01;13.57;;;4.17;;
1925;SDS011;964;42.606;23.588;2023-02-26T12:35:35;9.07;;;4.00;;
1925;SDS011;964;42.606;23.588;2023-02-26T12:38:19;7.40;;;3.43;;
1925;SDS011;964;42.606;23.588;2023-02-26T12:44:06;11.73;;;3.60;;
1925;SDS011;964;42.606;23.588;2023-02-26T12:46:49;7.17;;;3.10;;
1925;SDS011;964;42.606;23.588;2023-02-26T12:49:39;10.70;;;2.80;;
1925;SDS011;964;42.606;23.588;2023-02-26T12:52:30;6.27;;;3.33;;
1925;SDS011;964;42.606;23.588;2023-02-26T12:55:12;6.20;;;3.20;;
1925;SDS011;964;42.606;23.588;2023-02-26T12:57:52;9.80;;;3.40;;
1925;SDS011;964;42.606;23.588;2023-02-26T13:00:35;9.63;;;3.00;;
1925;SDS011;964;42.606;23.588;2023-02-26T13:03:24;8.00;;;3.60;;
1925;SDS011;964;42.606;23.588;2023-02-26T13:06:08;15.60;;;3.63;;
1925;SDS011;964;42.606;23.588;2023-02-26T13:08:56;7.57;;;3.33;;
1925;SDS011;964;42.606;23.588;2023-02-26T13:11:34;10.27;;;3.30;;
1925;SDS011;964;42.606;23.588;2023-02-26T13:14:16;19.70;;;3.90;;
1925;SDS011;964;42.606;23.588;2023-02-26T13:16:51;9.40;;;3.53;;
1925;SDS011;964;42.606;23.588;2023-02-26T13:19:28;18.87;;;4.80;;
1925;SDS011;964;42.606;23.588;2023-02-26T13:22:01;9.30;;;3.30;;
1925;SDS011;964;42.606;23.588;2023-02-26T13:24:38;10.17;;;3.80;;
1925;SDS011;964;42.606;23.588;2023-02-26T13:27:08;13.50;;;4.17;;
1925;SDS011;964;42.606;23.588;2023-02-26T13:29:38;9.50;;;3.87;;
1925;SDS011;964;42.606;23.588;2023-02-26T13:32:10;16.87;;;5.27;;
1925;SDS011;964;42.606;23.588;2023-02-26T13:34:44;16.97;;;3.80;;
1925;SDS011;964;42.606;23.588;2023-02-26T13:37:20;12.93;;;4.37;;
1925;SDS011;964;42.606;23.588;2023-02-26T13:39:54;22.67;;;4.93;;
1925;SDS011;964;42.606;23.588;2023-02-26T13:42:32;9.90;;;4.30;;
1925;SDS011;964;42.606;23.588;2023-02-26T13:45:10;8.93;;;3.80;;
1925;SDS011;964;42.606;23.588;2023-02-26T13:47:55;23.00;;;4.73;;
1925;SDS011;964;42.606;23.588;2023-02-26T13:50:39;17.97;;;4.73;;
1925;SDS011;964;42.606;23.588;2023-02-26T13:56:14;13.03;;;4.50;;
1925;SDS011;964;42.606;23.588;2023-02-26T13:58:47;19.17;;;5.40;;
1925;SDS011;964;42.606;23.588;2023-02-26T14:01:15;20.30;;;5.10;;
1925;SDS011;964;42.606;23.588;2023-02-26T14:03:48;14.47;;;3.93;;
1925;SDS011;964;42.606;23.588;2023-02-26T14:12:03;13.47;;;3.70;;
1925;SDS011;964;42.606;23.588;2023-02-26T14:18:01;17.30;;;7.00;;
1925;SDS011;964;42.606;23.588;2023-02-26T14:20:30;21.70;;;5.40;;
1925;SDS011;964;42.606;23.588;2023-02-26T14:23:21;22.97;;;4.77;;
1925;SDS011;964;42.606;23.588;2023-02-26T14:26:02;16.60;;;4.77;;
1925;SDS011;964;42.606;23.588;2023-02-26T14:28:32;19.70;;;5.13;;
1925;SDS011;964;42.606;23.588;2023-02-26T14:31:07;14.97;;;4.03;;
1925;SDS011;964;42.606;23.588;2023-02-26T14:33:41;20.43;;;5.80;;
1925;SDS011;964;42.606;23.588;2023-02-26T14:36:14;27.33;;;5.47;;
1925;SDS011;964;42.606;23.588;2023-02-26T14:38:45;17.90;;;8.07;;
1925;SDS011;964;42.606;23.588;2023-02-26T14:41:19;22.43;;;5.80;;
1925;SDS011;964;42.606;23.588;2023-02-26T14:43:55;32.67;;;12.80;;
1925;SDS011;964;42.606;23.588;2023-02-26T14:46:25;24.33;;;8.10;;
1925;SDS011;964;42.606;23.588;2023-02-26T14:48:55;16.87;;;4.57;;
1925;SDS011;964;42.606;23.588;2023-02-26T14:51:23;25.10;;;5.70;;
1925;SDS011;964;42.606;23.588;2023-02-26T14:54:05;16.30;;;4.27;;
1925;SDS011;964;42.606;23.588;2023-02-26T14:56:50;28.10;;;5.20;;
1925;SDS011;964;42.606;23.588;2023-02-26T14:59:27;18.27;;;5.00;;
1925;SDS011;964;42.606;23.588;2023-02-26T15:02:13;28.73;;;6.90;;
1925;SDS011;964;42.606;23.588;2023-02-26T15:05:10;29.53;;;6.30;;
1925;SDS011;964;42.606;23.588;2023-02-26T15:07:50;27.67;;;5.23;;
1925;SDS011;964;42.606;23.588;2023-02-26T15:10:29;19.83;;;5.33;;
1925;SDS011;964;42.606;23.588;2023-02-26T15:13:10;16.93;;;5.43;;
1925;SDS011;964;42.606;23.588;2023-02-26T15:15:50;17.67;;;5.07;;
1925;SDS011;964;42.606;23.588;2023-02-26T15:18:28;24.73;;;5.87;;
1925;SDS011;964;42.606;23.588;2023-02-26T15:21:07;25.60;;;5.73;;
1925;SDS011;964;42.606;23.588;2023-02-26T15:23:43;24.93;;;7.33;;
1925;SDS011;964;42.606;23.588;2023-02-26T15:26:14;38.50;;;10.37;;
1925;SDS011;964;42.606;23.588;2023-02-26T15:28:44;32.10;;;8.07;;
1925;SDS011;964;42.606;23.588;2023-02-26T15:31:12;25.40;;;10.83;;
1925;SDS011;964;42.606;23.588;2023-02-26T15:33:39;19.50;;;8.70;;
1925;SDS011;964;42.606;23.588;2023-02-26T15:36:08;15.70;;;7.70;;
1925;SDS011;964;42.606;23.588;2023-02-26T15:38:39;31.40;;;9.23;;
1925;SDS011;964;42.606;23.588;2023-02-26T15:41:07;19.57;;;5.10;;
1925;SDS011;964;42.606;23.588;2023-02-26T15:43:34;13.40;;;6.57;;
1925;SDS011;964;42.606;23.588;2023-02-26T15:46:01;13.63;;;6.07;;
1925;SDS011;964;42.606;23.588;2023-02-26T15:48:29;17.43;;;6.43;;
1925;SDS011;964;42.606;23.588;2023-02-26T15:51:00;21.10;;;6.10;;
1925;SDS011;964;42.606;23.588;2023-02-26T15:53:31;13.03;;;4.00;;
1925;SDS011;964;42.606;23.588;2023-02-26T15:56:02;12.73;;;5.20;;
1925;SDS011;964;42.606;23.588;2023-02-26T15:58:34;11.93;;;5.80;;